Time;durP1;ratioP1;P1;durP2;ratioP2;P2;SDS_P1;SDS_P2;PMS_P1;PMS_P2;Temp;Humidity;BMP_temperature;BMP_pressure;BME280_temperature;BME280_humidity;BME280_pressure;Samples;Min_cycle;Max_cycle;Signal;HPM_P1;HPM_P2
2022/02/13 00:00:09;;;;;;;21.10;7.85;;;;;;;1.95;68.67;101571.69;5074665;28;20047;-66
2022/02/13 00:02:40;;;;;;;20.27;7.93;;;;;;;2.04;68.30;101572.09;5073582;28;20044;-67
2022/02/13 00:05:08;;;;;;;21.38;8.05;;;;;;;2.10;67.88;101569.16;5072784;28;20044;-68
2022/02/13 00:07:36;;;;;;;20.95;8.25;;;;;;;2.11;67.55;101563.00;5056689;28;20485;-67
2022/02/13 00:10:06;;;;;;;21.15;7.63;;;;;;;2.05;67.93;101565.91;5089569;28;20119;-65
2022/02/13 00:12:32;;;;;;;20.58;8.80;;;;;;;2.04;68.30;101559.00;5093400;28;20567;-66
2022/02/13 00:14:59;;;;;;;18.15;7.65;;;;;;;2.00;68.36;101546.13;5094646;28;20085;-66
2022/02/13 00:17:27;;;;;;;22.95;8.50;;;;;;;1.94;67.64;101542.06;5093118;28;20470;-67
2022/02/13 00:20:02;;;;;;;19.90;8.25;;;;;;;2.05;67.36;101554.59;5094641;28;20040;-66
2022/02/13 00:22:30;;;;;;;20.45;7.93;;;;;;;1.93;67.46;101548.25;5076774;28;20515;-66
2022/02/13 00:24:57;;;;;;;16.85;7.45;;;;;;;1.97;67.84;101543.69;5092947;28;20055;-66
2022/02/13 00:27:24;;;;;;;23.17;7.88;;;;;;;1.92;67.40;101547.38;5056535;28;20040;-66
2022/02/13 00:29:51;;;;;;;21.15;7.50;;;;;;;1.88;68.14;101543.22;5092113;28;20557;-66
2022/02/13 00:32:19;;;;;;;21.60;8.27;;;;;;;1.93;67.79;101537.78;5076594;28;20054;-66
2022/02/13 00:34:46;;;;;;;25.40;8.27;;;;;;;1.97;67.78;101538.47;5092258;28;20047;-66
2022/02/13 00:37:14;;;;;;;19.17;8.15;;;;;;;1.91;67.61;101535.22;5093304;28;20040;-67
2022/02/13 00:39:41;;;;;;;24.85;8.15;;;;;;;1.89;67.57;101541.44;5093998;28;20046;-67
2022/02/13 00:42:08;;;;;;;23.90;8.25;;;;;;;1.90;68.04;101532.69;5076284;28;20082;-66
2022/02/13 00:44:35;;;;;;;19.83;8.23;;;;;;;1.95;67.30;101525.47;5093930;28;20053;-66
2022/02/13 00:47:02;;;;;;;20.52;7.88;;;;;;;1.91;67.62;101527.38;5092759;28;20036;-66
2022/02/13 00:49:29;;;;;;;20.65;8.20;;;;;;;2.00;67.65;101522.59;5093861;28;20044;-66
2022/02/13 00:51:56;;;;;;;21.60;8.00;;;;;;;1.96;67.86;101521.91;5086883;28;20044;-66
2022/02/13 00:54:23;;;;;;;21.15;7.80;;;;;;;1.96;67.22;101518.44;5088997;28;20140;-66
2022/02/13 00:56:50;;;;;;;25.02;8.50;;;;;;;1.94;67.84;101513.28;5039530;28;20048;-66
2022/02/13 00:59:17;;;;;;;22.30;7.75;;;;;;;1.93;66.95;101509.00;5039432;28;20044;-66
2022/02/13 01:01:43;;;;;;;24.30;8.45;;;;;;;1.97;67.22;101520.16;5084721;28;20180;-66
2022/02/13 01:04:10;;;;;;;20.05;7.70;;;;;;;1.90;67.77;101506.53;5092045;28;20488;-66
2022/02/13 01:06:37;;;;;;;20.95;7.93;;;;;;;2.00;66.69;101509.50;5093481;28;20044;-66
2022/02/13 01:09:05;;;;;;;21.80;7.43;;;;;;;1.90;66.92;101507.38;5092573;28;20101;-66
2022/02/13 01:11:32;;;;;;;20.88;7.97;;;;;;;1.92;67.22;101507.28;5093271;28;20044;-66
2022/02/13 01:13:59;;;;;;;17.55;7.70;;;;;;;1.91;67.19;101506.44;5093770;28;20093;-66
2022/02/13 01:16:27;;;;;;;21.25;7.65;;;;;;;1.84;66.83;101510.31;5093302;28;20047;-66
2022/02/13 01:18:54;;;;;;;18.98;7.93;;;;;;;1.83;67.02;101513.00;5092323;28;20032;-66
2022/02/13 01:21:22;;;;;;;18.38;7.95;;;;;;;1.82;67.96;101511.28;5083774;28;20044;-66
2022/02/13 01:23:49;;;;;;;16.35;7.57;;;;;;;1.77;67.41;101513.31;5071969;28;20051;-66
2022/02/13 01:26:19;;;;;;;26.17;7.82;;;;;;;1.77;67.78;101514.16;5079208;28;20056;-66
2022/02/13 01:28:47;;;;;;;17.48;7.10;;;;;;;1.78;68.20;101499.31;5092293;28;20040;-66
2022/02/13 01:31:13;;;;;;;25.02;8.13;;;;;;;1.72;67.87;101501.31;5059127;28;20150;-66
2022/02/13 01:33:40;;;;;;;19.35;7.70;;;;;;;1.71;67.45;101496.13;5092000;28;20044;-67
2022/02/13 01:36:08;;;;;;;18.25;7.45;;;;;;;1.72;68.26;101492.63;5092084;28;20377;-66
2022/02/13 01:38:36;;;;;;;22.52;7.57;;;;;;;1.70;67.87;101486.63;5091929;28;20067;-66
2022/02/13 01:41:04;;;;;;;21.48;7.75;;;;;;;1.70;67.94;101482.22;5075272;28;20462;-66
2022/02/13 01:43:31;;;;;;;21.20;7.93;;;;;;;1.64;67.96;101479.94;5092773;28;20554;-67
2022/02/13 01:45:58;;;;;;;18.40;7.18;;;;;;;1.73;67.77;101479.47;5092040;28;20487;-66
2022/02/13 01:48:25;;;;;;;18.13;7.00;;;;;;;1.71;67.58;101472.59;5093145;28;20047;-66
2022/02/13 01:50:53;;;;;;;21.10;7.28;;;;;;;1.67;67.20;101471.94;5071942;28;20041;-67
2022/02/13 01:53:34;;;;;;;15.57;7.55;;;;;;;1.58;67.41;101469.75;5080963;28;20093;-66
2022/02/13 01:56:01;;;;;;;19.48;7.70;;;;;;;1.65;67.75;101471.16;5076583;28;20131;-66
2022/02/13 01:58:28;;;;;;;19.13;7.80;;;;;;;1.69;67.43;101467.47;5082956;28;20048;-66
2022/02/13 02:00:56;;;;;;;25.55;7.93;;;;;;;1.67;67.21;101473.69;5075422;28;20040;-66
2022/02/13 02:03:23;;;;;;;19.48;7.43;;;;;;;1.72;67.03;101466.47;5093024;28;20039;-66
2022/02/13 02:05:50;;;;;;;22.05;7.60;;;;;;;1.71;67.19;101464.75;5091712;28;20545;-66
2022/02/13 02:08:17;;;;;;;21.60;8.20;;;;;;;1.77;67.44;101463.63;5092840;28;20036;-66
2022/02/13 02:10:44;;;;;;;24.20;7.72;;;;;;;1.66;67.71;101459.78;5092828;28;20097;-66
2022/02/13 02:13:13;;;;;;;19.55;8.05;;;;;;;1.64;67.59;101466.03;5091829;28;20075;-66
2022/02/13 02:15:39;;;;;;;23.25;8.13;;;;;;;1.51;67.40;101461.41;5074904;28;20068;-66
2022/02/13 02:18:06;;;;;;;21.55;7.93;;;;;;;1.53;67.57;101464.78;5093061;28;20052;-66
2022/02/13 02:20:33;;;;;;;18.05;7.43;;;;;;;1.51;68.03;101456.19;5092805;28;20048;-66
2022/02/13 02:23:00;;;;;;;22.80;7.85;;;;;;;1.54;67.08;101457.78;5092412;28;20040;-66
2022/02/13 02:25:27;;;;;;;23.48;7.25;;;;;;;1.49;67.84;101459.78;5090867;28;20052;-66
2022/02/13 02:27:53;;;;;;;18.85;7.28;;;;;;;1.46;67.82;101458.19;5071384;28;20411;-66
2022/02/13 02:30:20;;;;;;;21.88;8.32;;;;;;;1.66;67.26;101465.00;5091846;28;20054;-66
2022/02/13 02:32:47;;;;;;;26.38;8.15;;;;;;;1.54;67.78;101463.00;5092044;28;20051;-66
2022/02/13 02:35:14;;;;;;;16.55;7.97;;;;;;;1.49;67.99;101457.16;5091018;28;20051;-66
2022/02/13 02:37:41;;;;;;;20.38;7.55;;;;;;;1.43;67.89;101452.25;5091760;28;20055;-66
2022/02/13 02:40:08;;;;;;;24.02;8.18;;;;;;;1.39;68.37;101451.56;5092535;28;20044;-66
2022/02/13 02:42:35;;;;;;;18.02;7.57;;;;;;;1.40;68.31;101441.94;5074685;28;20067;-66
2022/02/13 02:45:03;;;;;;;18.70;7.93;;;;;;;1.40;68.12;101444.56;5092551;28;20040;-66
2022/02/13 02:47:29;;;;;;;20.23;7.30;;;;;;;1.41;67.72;101436.63;5092374;28;20043;-66
2022/02/13 02:49:56;;;;;;;19.60;7.60;;;;;;;1.55;67.45;101433.34;5091524;28;20116;-66
2022/02/13 02:52:23;;;;;;;18.73;8.07;;;;;;;1.38;67.40;101426.31;5092904;28;20048;-66
2022/02/13 02:54:49;;;;;;;23.23;7.90;;;;;;;1.41;67.99;101425.34;5095200;28;20048;-66
2022/02/13 02:57:16;;;;;;;19.25;7.72;;;;;;;1.40;68.05;101421.88;5091350;28;20097;-66
2022/02/13 02:59:43;;;;;;;19.95;7.18;;;;;;;1.39;68.32;101412.34;5096242;28;20553;-66
2022/02/13 03:02:09;;;;;;;16.70;7.55;;;;;;;1.32;67.90;101400.50;5096012;28;20044;-66
2022/02/13 03:04:36;;;;;;;16.80;6.97;;;;;;;1.29;67.64;101398.03;5096052;28;20043;-66
2022/02/13 03:07:03;;;;;;;15.48;7.00;;;;;;;1.31;68.04;101385.72;5095799;28;20508;-66
2022/02/13 03:09:30;;;;;;;21.42;7.55;;;;;;;1.36;67.27;101388.97;5077906;28;20059;-66
2022/02/13 03:11:58;;;;;;;18.33;7.20;;;;;;;1.34;67.39;101398.66;5095689;28;20036;-66
2022/02/13 03:14:26;;;;;;;18.33;7.05;;;;;;;1.36;66.96;101386.34;5094839;28;20047;-66
2022/02/13 03:16:53;;;;;;;22.88;7.38;;;;;;;1.34;66.89;101385.59;5095654;28;20043;-66
2022/02/13 03:19:20;;;;;;;15.95;7.18;;;;;;;1.28;67.65;101378.06;5094585;28;20040;-66
2022/02/13 03:21:47;;;;;;;19.15;7.38;;;;;;;1.17;67.25;101373.38;5077740;28;20384;-66
2022/02/13 03:24:14;;;;;;;16.63;7.20;;;;;;;1.22;67.33;101376.63;5095273;28;20047;-66
2022/02/13 03:26:40;;;;;;;20.33;7.28;;;;;;;1.10;68.00;101378.06;5095335;28;20048;-66
2022/02/13 03:29:07;;;;;;;16.25;6.95;;;;;;;1.13;68.23;101371.84;5095302;28;20496;-66
2022/02/13 03:31:34;;;;;;;20.63;7.63;;;;;;;1.22;67.38;101370.53;5095403;28;20411;-66
2022/02/13 03:34:00;;;;;;;20.40;7.25;;;;;;;1.21;67.40;101366.22;5094016;28;20094;-66
2022/02/13 03:36:27;;;;;;;20.33;7.43;;;;;;;1.29;66.61;101364.91;5094231;28;20111;-66
2022/02/13 03:38:54;;;;;;;19.52;6.90;;;;;;;1.27;67.78;101355.44;5095287;28;20048;-66
2022/02/13 03:41:21;;;;;;;22.77;7.57;;;;;;;1.12;67.21;101344.84;5095471;28;20040;-66
2022/02/13 03:43:47;;;;;;;23.08;8.20;;;;;;;1.15;67.76;101347.31;5093856;28;20373;-67
2022/02/13 03:46:14;;;;;;;19.20;7.22;;;;;;;1.10;67.51;101349.31;5094224;28;20074;-67
2022/02/13 03:48:41;;;;;;;18.48;7.00;;;;;;;1.13;68.35;101353.56;5076905;28;20046;-66
2022/02/13 03:51:09;;;;;;;17.33;6.93;;;;;;;1.06;68.50;101345.19;5094252;28;20063;-66
2022/02/13 03:53:36;;;;;;;18.52;6.97;;;;;;;1.01;68.32;101344.56;5093788;28;20040;-67
2022/02/13 03:56:03;;;;;;;22.45;6.90;;;;;;;1.02;68.52;101343.66;5077301;28;20054;-67
2022/02/13 03:58:30;;;;;;;18.80;7.50;;;;;;;1.04;67.92;101335.75;5093866;28;20074;-67
2022/02/13 04:00:57;;;;;;;21.27;7.60;;;;;;;1.10;67.79;101343.25;5095175;28;20130;-66
2022/02/13 04:03:24;;;;;;;20.02;7.43;;;;;;;0.99;68.31;101340.34;5061012;28;20454;-66
2022/02/13 04:05:54;;;;;;;18.35;7.30;;;;;;;1.01;68.25;101336.72;5095358;28;20214;-66
2022/02/13 04:08:22;;;;;;;21.27;8.13;;;;;;;0.92;68.96;101343.25;5093382;28;20036;-66
2022/02/13 04:10:50;;;;;;;19.90;7.10;;;;;;;0.88;69.03;101336.50;5093499;28;20097;-67
2022/02/13 04:13:17;;;;;;;19.45;7.60;;;;;;;0.92;69.37;101338.03;5094673;28;20048;-67
2022/02/13 04:15:44;;;;;;;20.63;7.78;;;;;;;0.88;69.26;101335.66;5093889;28;20043;-66
2022/02/13 04:18:13;;;;;;;20.40;7.68;;;;;;;0.91;68.39;101338.97;5109393;28;20396;-67
2022/02/13 04:20:41;;;;;;;21.55;7.60;;;;;;;0.85;68.53;101335.81;5093622;28;20434;-67
2022/02/13 04:23:09;;;;;;;19.25;7.68;;;;;;;0.97;69.07;101335.19;5076375;28;20450;-67
2022/02/13 04:25:36;;;;;;;20.90;8.38;;;;;;;0.94;68.48;101333.56;5093266;28;20047;-66
2022/02/13 04:28:04;;;;;;;19.20;7.63;;;;;;;0.92;68.84;101324.13;5093342;28;20040;-66
2022/02/13 04:30:30;;;;;;;17.17;7.65;;;;;;;0.90;69.28;101321.59;5089429;28;20051;-66
2022/02/13 04:32:58;;;;;;;19.98;7.40;;;;;;;0.92;69.19;101317.13;5093081;28;20496;-67
2022/02/13 04:35:27;;;;;;;17.25;7.78;;;;;;;0.83;69.38;101316.75;5076273;28;20044;-67
2022/02/13 04:37:56;;;;;;;17.98;7.60;;;;;;;0.83;69.51;101312.38;5093051;28;20036;-67
2022/02/13 04:40:24;;;;;;;18.10;8.05;;;;;;;0.85;69.62;101309.69;5083770;28;20109;-67
2022/02/13 04:42:51;;;;;;;20.13;7.90;;;;;;;0.82;69.42;101315.06;5092724;28;20164;-66
2022/02/13 04:45:17;;;;;;;17.88;7.28;;;;;;;0.89;68.89;101312.09;5092771;28;20385;-67
2022/02/13 04:47:44;;;;;;;18.40;7.80;;;;;;;0.95;69.28;101309.16;5092797;28;20135;-67
2022/02/13 04:50:11;;;;;;;22.65;8.30;;;;;;;0.93;68.83;101310.16;5092785;28;20040;-66
2022/02/13 04:52:38;;;;;;;16.33;7.68;;;;;;;0.92;69.08;101298.84;5109597;28;20047;-66
2022/02/13 04:55:05;;;;;;;18.17;7.45;;;;;;;0.90;68.45;101299.84;5094053;28;20558;-66
2022/02/13 04:57:31;;;;;;;21.23;7.90;;;;;;;0.90;68.54;101297.25;5093658;28;20131;-67
2022/02/13 04:59:59;;;;;;;20.77;7.55;;;;;;;0.93;67.99;101291.88;5093887;28;20466;-67
2022/02/13 05:02:25;;;;;;;17.35;7.10;;;;;;;0.84;67.87;101295.78;5093702;28;20040;-66
2022/02/13 05:04:52;;;;;;;17.75;7.57;;;;;;;0.84;68.80;101287.13;5075807;28;20040;-67
2022/02/13 05:07:19;;;;;;;17.00;7.15;;;;;;;0.68;68.33;101287.03;5093823;28;20089;-66
2022/02/13 05:09:45;;;;;;;21.77;7.63;;;;;;;0.71;68.16;101286.84;5092317;28;20445;-67
2022/02/13 05:12:12;;;;;;;19.10;8.23;;;;;;;0.77;69.15;101276.97;5092290;28;20081;-66
2022/02/13 05:14:40;;;;;;;17.63;7.50;;;;;;;0.75;68.78;101273.59;5092153;28;20048;-66
2022/02/13 05:17:08;;;;;;;15.00;7.22;;;;;;;0.82;68.25;101271.50;5092238;28;20135;-66
2022/02/13 05:19:34;;;;;;;20.70;8.13;;;;;;;0.86;67.95;101270.44;5092096;28;20408;-67
2022/02/13 05:22:01;;;;;;;17.88;7.75;;;;;;;0.70;68.36;101264.28;5093424;28;20047;-66
2022/02/13 05:24:28;;;;;;;20.17;7.05;;;;;;;0.75;68.07;101267.53;5092283;28;20541;-66
2022/02/13 05:26:55;;;;;;;14.98;6.90;;;;;;;0.82;67.82;101265.44;5092253;28;20097;-66
2022/02/13 05:29:22;;;;;;;16.98;7.40;;;;;;;0.80;68.52;101259.44;5092100;28;20043;-66
2022/02/13 05:31:48;;;;;;;23.13;7.85;;;;;;;0.74;67.93;101265.81;5093458;28;20036;-66
2022/02/13 05:34:16;;;;;;;20.55;7.30;;;;;;;0.77;68.11;101255.22;5075262;28;20556;-66
2022/02/13 05:36:43;;;;;;;23.80;7.40;;;;;;;0.83;68.37;101256.69;5075886;28;20048;-66
2022/02/13 05:39:10;;;;;;;16.23;7.68;;;;;;;0.82;67.59;101254.97;5075448;28;20081;-66
2022/02/13 05:41:40;;;;;;;20.80;7.03;;;;;;;0.85;68.05;101255.66;5092007;28;20484;-66
2022/02/13 05:44:06;;;;;;;17.35;7.32;;;;;;;0.65;68.69;101248.84;5091780;28;20040;-66
2022/02/13 05:46:33;;;;;;;19.85;7.35;;;;;;;0.57;68.00;101243.19;5075384;28;20040;-66
2022/02/13 05:49:01;;;;;;;16.77;7.35;;;;;;;0.72;68.71;101241.56;5091615;28;20093;-66
2022/02/13 05:51:27;;;;;;;20.77;7.57;;;;;;;0.55;68.29;101247.63;5092146;28;20055;-66
2022/02/13 05:53:55;;;;;;;25.95;7.88;;;;;;;0.50;68.50;101241.81;5093047;28;20044;-66
2022/02/13 05:56:23;;;;;;;22.67;8.05;;;;;;;0.30;69.74;101237.56;5108729;28;20483;-66
2022/02/13 05:58:51;;;;;;;19.08;7.82;;;;;;;0.41;69.50;101232.66;5091995;28;20048;-66
2022/02/13 06:01:19;;;;;;;18.65;7.68;;;;;;;0.55;68.51;101231.97;5091908;28;20048;-66
2022/02/13 06:03:47;;;;;;;17.15;7.85;;;;;;;0.39;69.07;101239.72;5091691;28;20047;-67
2022/02/13 06:06:13;;;;;;;19.92;7.13;;;;;;;0.55;69.19;101245.88;5080961;28;20489;-67
2022/02/13 06:08:40;;;;;;;18.67;8.05;;;;;;;0.31;69.83;101231.41;5072702;28;20287;-66
2022/02/13 06:11:07;;;;;;;18.90;7.72;;;;;;;0.35;69.55;101236.41;5091874;28;20040;-66
2022/02/13 06:13:35;;;;;;;19.88;7.70;;;;;;;0.46;69.14;101235.06;5075527;28;20040;-66
2022/02/13 06:16:02;;;;;;;15.40;7.43;;;;;;;0.53;68.76;101237.28;5093042;28;20422;-66
2022/02/13 06:18:29;;;;;;;21.38;7.25;;;;;;;0.59;69.36;101235.28;5091395;28;20040;-66
2022/02/13 06:20:56;;;;;;;18.27;7.32;;;;;;;0.55;69.30;101230.19;5087721;28;20119;-66
2022/02/13 06:23:22;;;;;;;18.42;7.55;;;;;;;0.53;68.56;101229.44;5088904;28;20055;-66
2022/02/13 06:25:49;;;;;;;16.27;7.30;;;;;;;0.52;69.48;101235.56;5092369;28;20119;-66
2022/02/13 06:28:16;;;;;;;18.80;7.18;;;;;;;0.45;69.66;101230.75;5094442;28;20085;-66
2022/02/13 06:30:43;;;;;;;21.10;7.97;;;;;;;0.47;69.09;101223.66;5092716;28;20036;-66
2022/02/13 06:33:10;;;;;;;17.70;7.97;;;;;;;0.35;70.13;101223.38;5096447;28;20101;-66
2022/02/13 06:35:37;;;;;;;23.65;8.18;;;;;;;0.41;69.18;101218.78;5095286;28;20062;-66
2022/02/13 06:38:03;;;;;;;21.77;8.10;;;;;;;0.51;69.26;101226.06;5096495;28;20040;-66
2022/02/13 06:40:30;;;;;;;19.95;8.32;;;;;;;0.43;70.07;101222.97;5096227;28;20047;-66
2022/02/13 06:42:57;;;;;;;20.83;7.85;;;;;;;0.39;69.45;101226.69;5095219;28;20101;-66
2022/02/13 06:45:24;;;;;;;18.63;7.53;;;;;;;0.44;69.44;101232.50;5095085;28;20169;-66
2022/02/13 06:47:52;;;;;;;21.52;8.13;;;;;;;0.37;69.70;101233.75;5078328;28;20040;-66
2022/02/13 06:50:19;;;;;;;20.65;8.38;;;;;;;0.25;70.35;101227.34;5096169;28;20122;-66
2022/02/13 06:52:46;;;;;;;22.55;8.15;;;;;;;0.41;70.04;101231.81;5095202;28;20044;-66
2022/02/13 06:55:12;;;;;;;25.38;8.98;;;;;;;0.52;69.88;101224.28;5095116;28;20042;-66
2022/02/13 06:57:48;;;;;;;19.17;8.02;;;;;;;0.40;70.61;101219.69;5095048;28;20452;-66
2022/02/13 07:00:16;;;;;;;21.50;8.43;;;;;;;0.37;70.00;101213.69;5096078;28;20036;-66
2022/02/13 07:02:44;;;;;;;22.20;8.15;;;;;;;0.49;70.17;101216.59;5094893;28;20040;-66
2022/02/13 07:05:11;;;;;;;20.60;8.48;;;;;;;0.51;69.76;101213.00;5078043;28;20040;-66
2022/02/13 07:07:38;;;;;;;20.08;8.38;;;;;;;0.40;70.30;101220.53;5094612;28;20213;-66
2022/02/13 07:10:07;;;;;;;24.08;8.65;;;;;;;0.37;70.58;101218.06;5095896;28;20032;-66
2022/02/13 07:12:34;;;;;;;20.50;8.32;;;;;;;0.48;70.43;101210.53;5095879;28;20036;-67
2022/02/13 07:15:05;;;;;;;18.02;8.15;;;;;;;0.57;70.45;101210.06;5095778;28;20402;-66
2022/02/13 07:17:33;;;;;;;23.95;8.70;;;;;;;0.61;70.29;101205.53;5094692;28;20070;-67
2022/02/13 07:20:00;;;;;;;20.23;8.20;;;;;;;0.74;69.64;101209.19;5095738;28;20033;-67
2022/02/13 07:22:26;;;;;;;21.40;8.10;;;;;;;0.70;69.97;101197.22;5095706;28;20044;-67
2022/02/13 07:24:53;;;;;;;21.85;8.40;;;;;;;0.72;69.21;101187.53;5077675;28;20413;-67
2022/02/13 07:27:20;;;;;;;18.10;8.40;;;;;;;0.80;69.39;101186.31;5095402;28;20036;-67
2022/02/13 07:29:47;;;;;;;19.23;8.23;;;;;;;0.85;68.87;101190.38;5068804;28;20071;-67
2022/02/13 07:32:14;;;;;;;20.23;8.32;;;;;;;0.88;69.31;101177.16;5094260;28;20055;-67
2022/02/13 07:34:41;;;;;;;17.95;8.10;;;;;;;0.85;69.17;101177.31;5095411;28;20089;-67
2022/02/13 07:37:10;;;;;;;20.60;8.70;;;;;;;0.93;69.38;101175.16;5074003;28;20122;-67
2022/02/13 07:39:38;;;;;;;22.20;8.85;;;;;;;0.90;69.40;101167.47;5071413;28;20047;-67
2022/02/13 07:42:05;;;;;;;19.80;8.68;;;;;;;0.97;68.27;101152.31;5095211;28;20040;-67
2022/02/13 07:44:32;;;;;;;19.80;8.63;;;;;;;0.95;68.54;101155.00;5077499;28;20056;-67
2022/02/13 07:46:59;;;;;;;15.60;7.82;;;;;;;1.04;68.72;101147.63;5077373;28;20315;-67
2022/02/13 07:49:26;;;;;;;21.40;8.98;;;;;;;1.11;68.52;101155.03;5073523;28;20060;-67
2022/02/13 07:51:52;;;;;;;22.45;9.30;;;;;;;1.14;68.90;101147.00;5073500;28;20420;-67
2022/02/13 07:54:19;;;;;;;20.98;8.48;;;;;;;1.22;67.96;101151.84;5078935;28;20511;-67
2022/02/13 07:56:46;;;;;;;25.25;8.52;;;;;;;1.37;68.30;101147.53;5093843;28;20047;-67
2022/02/13 07:59:13;;;;;;;19.10;8.43;;;;;;;1.39;66.95;101145.66;5094014;28;20127;-67
2022/02/13 08:01:40;;;;;;;18.70;8.38;;;;;;;1.54;67.17;101150.03;5093941;28;20044;-66
2022/02/13 08:04:07;;;;;;;20.00;8.52;;;;;;;1.70;66.79;101142.16;5076865;28;20522;-66
2022/02/13 08:06:34;;;;;;;23.98;8.75;;;;;;;1.78;66.22;101140.91;5093811;28;20046;-66
2022/02/13 08:09:00;;;;;;;23.48;9.23;;;;;;;1.90;65.57;101141.03;5093456;28;20036;-66
2022/02/13 08:11:27;;;;;;;24.17;9.63;;;;;;;1.88;65.71;101129.81;5076651;28;20042;-66
2022/02/13 08:13:54;;;;;;;24.00;8.63;;;;;;;1.98;65.11;101126.66;5094489;28;20036;-66
2022/02/13 08:16:22;;;;;;;23.73;10.50;;;;;;;2.08;65.09;101139.13;5094828;28;20063;-66
2022/02/13 08:18:49;;;;;;;22.85;10.20;;;;;;;2.04;64.58;101126.31;5093267;28;20040;-66
2022/02/13 08:21:17;;;;;;;21.98;9.85;;;;;;;2.34;63.61;101128.06;5094837;28;20044;-66
2022/02/13 08:23:43;;;;;;;21.83;9.30;;;;;;;2.30;63.83;101122.16;5078477;28;20086;-65
2022/02/13 08:26:10;;;;;;;24.52;9.90;;;;;;;2.31;63.13;101118.63;5094599;28;20044;-66
2022/02/13 08:28:37;;;;;;;22.60;10.23;;;;;;;2.41;63.27;101118.91;5093047;28;20048;-67
2022/02/13 08:31:04;;;;;;;22.77;9.48;;;;;;;2.42;62.22;101123.19;5072665;28;20035;-67
2022/02/13 08:33:32;;;;;;;22.02;10.27;;;;;;;2.43;62.56;101125.72;5076273;28;20040;-67
2022/02/13 08:35:59;;;;;;;18.15;8.18;;;;;;;2.45;61.83;101131.72;5093323;28;20083;-66
2022/02/13 08:38:26;;;;;;;18.83;8.15;;;;;;;2.48;61.77;101126.28;5094321;28;20050;-66
2022/02/13 08:40:53;;;;;;;19.38;8.55;;;;;;;2.69;61.25;101126.78;5092763;28;20111;-66
2022/02/13 08:43:20;;;;;;;19.85;8.52;;;;;;;2.86;60.60;101125.75;5094130;28;20051;-66
2022/02/13 08:45:47;;;;;;;18.92;8.52;;;;;;;2.95;60.17;101123.47;5075457;28;20071;-67
2022/02/13 08:48:15;;;;;;;19.45;8.15;;;;;;;3.16;60.81;101127.38;5092709;28;20487;-67
2022/02/13 08:50:42;;;;;;;21.95;8.15;;;;;;;3.25;59.25;101129.41;5092059;28;20040;-67
2022/02/13 08:53:08;;;;;;;19.67;8.50;;;;;;;3.31;59.52;101125.59;5092382;28;20044;-67
2022/02/13 08:55:37;;;;;;;19.08;8.20;;;;;;;3.26;60.08;101125.88;5074959;28;20488;-67
2022/02/13 08:58:06;;;;;;;24.08;8.43;;;;;;;3.39;58.94;101119.84;5092777;28;20044;-68
2022/02/13 09:00:33;;;;;;;17.98;7.00;;;;;;;3.55;58.19;101117.91;5075562;28;20446;-68
2022/02/13 09:03:00;;;;;;;18.10;7.50;;;;;;;3.58;58.15;101114.22;5093646;28;20044;-69
2022/02/13 09:05:27;;;;;;;19.05;7.93;;;;;;;3.38;59.07;101103.25;5093501;28;20099;-68
2022/02/13 09:07:54;;;;;;;20.55;8.32;;;;;;;3.41;59.39;101102.22;5093569;28;20122;-68
2022/02/13 09:10:21;;;;;;;20.00;8.25;;;;;;;3.35;59.82;101098.22;5075469;28;20043;-68
2022/02/13 09:12:48;;;;;;;16.90;7.57;;;;;;;3.35;59.10;101095.59;5092405;28;20066;-68
2022/02/13 09:15:16;;;;;;;20.90;8.25;;;;;;;3.35;59.54;101092.97;5076145;28;20040;-67
2022/02/13 09:17:44;;;;;;;18.88;7.93;;;;;;;3.55;59.12;101094.31;5075413;28;20040;-68
2022/02/13 09:20:11;;;;;;;15.32;7.50;;;;;;;3.53;59.00;101092.69;5093644;28;20032;-68
2022/02/13 09:22:38;;;;;;;25.88;8.40;;;;;;;3.69;58.18;101093.38;5092063;28;20047;-67
2022/02/13 09:25:06;;;;;;;19.58;8.32;;;;;;;3.57;58.03;101087.16;5074955;28;20137;-68
2022/02/13 09:27:33;;;;;;;20.88;8.15;;;;;;;3.79;57.59;101080.50;5091969;28;20063;-67
2022/02/13 09:30:00;;;;;;;18.10;8.10;;;;;;;3.64;57.66;101077.97;5093262;28;20098;-67
2022/02/13 09:32:26;;;;;;;21.92;8.43;;;;;;;3.62;58.13;101076.34;5092210;28;20040;-67
2022/02/13 09:34:53;;;;;;;20.42;8.43;;;;;;;3.92;58.08;101073.50;5093185;28;20480;-67
2022/02/13 09:37:20;;;;;;;17.15;7.10;;;;;;;3.88;56.88;101071.19;5093139;28;20055;-68
2022/02/13 09:39:47;;;;;;;17.65;7.60;;;;;;;3.83;57.74;101074.94;5092220;28;20040;-67
2022/02/13 09:42:14;;;;;;;18.02;7.78;;;;;;;3.89;57.28;101060.56;5058263;28;20496;-66
2022/02/13 09:44:41;;;;;;;13.93;6.72;;;;;;;4.15;57.22;101053.56;5092826;28;20408;-67
2022/02/13 09:47:09;;;;;;;15.90;7.55;;;;;;;4.18;56.41;101050.75;5091784;28;20115;-67
2022/02/13 09:49:36;;;;;;;17.48;7.22;;;;;;;4.25;56.36;101052.94;5091853;28;20033;-67
2022/02/13 09:52:04;;;;;;;15.25;6.47;;;;;;;4.49;55.64;101051.22;5092056;28;20082;-67
2022/02/13 09:54:30;;;;;;;19.92;7.22;;;;;;;4.60;55.33;101046.06;5091525;28;20054;-67
2022/02/13 09:57:59;;;;;;;16.70;6.75;;;;;;;4.60;55.33;101039.97;5063743;28;20504;-67
2022/02/13 09:59:56;;;;;;;15.02;7.00;;;;;;;4.65;54.51;101037.03;5071555;28;20041;-68
2022/02/13 10:02:35;;;;;;;17.45;7.13;;;;;;;4.86;54.13;101037.25;5091884;28;20036;-68
2022/02/13 10:05:04;;;;;;;14.52;6.50;;;;;;;4.91;54.11;101030.75;5075868;28;20040;-68
2022/02/13 10:07:33;;;;;;;18.83;6.72;;;;;;;5.09;54.06;101028.56;5092574;28;20064;-68
2022/02/13 10:10:02;;;;;;;16.63;6.85;;;;;;;5.09;52.91;101025.94;5076291;28;20110;-67
2022/02/13 10:12:30;;;;;;;21.98;6.15;;;;;;;5.43;52.34;101027.91;5076759;28;20504;-67
2022/02/13 10:14:57;;;;;;;19.08;7.10;;;;;;;5.38;53.11;101028.22;5075659;28;20431;-67
2022/02/13 10:17:25;;;;;;;16.65;7.20;;;;;;;5.47;52.70;101021.44;5076586;28;20041;-67
2022/02/13 10:19:53;;;;;;;16.38;7.05;;;;;;;5.44;52.67;101027.78;5075491;28;20071;-67
2022/02/13 10:22:37;;;;;;;21.75;7.35;;;;;;;5.56;52.28;101026.03;5092007;28;20049;-67
2022/02/13 10:25:19;;;;;;;17.00;6.97;;;;;;;5.47;51.67;101024.91;5087795;28;20068;-68
2022/02/13 10:27:49;;;;;;;17.85;7.20;;;;;;;5.68;51.76;101024.28;5095760;28;20488;-67
2022/02/13 10:30:36;;;;;;;17.33;6.72;;;;;;;5.80;51.42;101020.69;5096508;28;20399;-66
2022/02/13 10:33:24;;;;;;;17.30;7.00;;;;;;;6.06;51.60;101020.56;5109246;28;20040;-69
2022/02/13 10:36:11;;;;;;;17.25;6.40;;;;;;;6.32;50.79;101023.81;5105939;28;20048;-67
2022/02/13 10:38:41;;;;;;;15.85;7.10;;;;;;;6.28;50.88;101017.94;5078343;28;20407;-68
2022/02/13 10:41:20;;;;;;;18.88;7.15;;;;;;;6.60;49.69;101004.00;5094749;28;20047;-68
2022/02/13 10:44:05;;;;;;;14.15;6.78;;;;;;;6.64;49.75;100992.28;5091419;28;20040;-68
2022/02/13 10:46:36;;;;;;;17.17;7.07;;;;;;;6.72;50.54;100983.75;5094751;28;20101;-68
2022/02/13 10:49:06;;;;;;;17.05;7.90;;;;;;;6.81;50.29;100987.47;5094320;28;20046;-68
2022/02/13 10:51:33;;;;;;;19.52;7.28;;;;;;;6.92;50.07;100985.63;5094616;28;20047;-67
2022/02/13 10:54:04;;;;;;;16.58;6.72;;;;;;;7.11;49.27;100976.19;5093477;28;20040;-67
2022/02/13 10:56:34;;;;;;;20.42;7.32;;;;;;;7.25;47.84;100969.78;5071734;28;20060;-67
2022/02/13 10:59:03;;;;;;;19.15;6.90;;;;;;;7.40;48.69;100967.69;5092564;28;20105;-67
2022/02/13 11:01:32;;;;;;;19.40;7.28;;;;;;;7.46;48.18;100961.91;5093547;28;20075;-67
2022/02/13 11:04:03;;;;;;;16.98;7.32;;;;;;;7.71;47.52;100957.19;5095058;28;20040;-67
2022/02/13 11:06:32;;;;;;;17.73;7.43;;;;;;;7.74;47.98;100954.28;5093957;28;20067;-67
2022/02/13 11:09:23;;;;;;;17.63;7.40;;;;;;;7.85;47.47;100947.13;5077786;28;20085;-67
2022/02/13 11:11:51;;;;;;;18.33;7.35;;;;;;;8.33;46.91;100932.44;5093817;28;20456;-67
2022/02/13 11:14:34;;;;;;;20.48;7.13;;;;;;;8.81;45.05;100928.25;5072605;28;20037;-67
2022/02/13 11:17:02;;;;;;;16.27;7.30;;;;;;;10.09;43.41;100935.00;5064533;28;20086;-67
2022/02/13 11:19:32;;;;;;;16.10;7.72;;;;;;;11.09;40.83;100922.66;5058158;28;20053;-67
2022/02/13 11:22:02;;;;;;;17.70;7.30;;;;;;;12.53;37.55;100923.00;5071140;28;20131;-67
2022/02/13 11:24:34;;;;;;;17.80;7.43;;;;;;;13.44;34.95;100931.91;5075340;28;20047;-67
2022/02/13 11:27:03;;;;;;;18.58;7.10;;;;;;;14.81;33.74;100927.28;5077199;28;20056;-67